createdAt,value
2018-10-04T00:00:44.639Z,12.52
2018-10-04T00:05:46.778Z,12.50
2018-10-04T00:10:48.939Z,12.48
2018-10-04T00:15:51.072Z,12.46
2018-10-04T00:20:53.226Z,12.50
2018-10-04T00:25:55.441Z,12.49
2018-10-04T00:30:57.567Z,12.47
2018-10-04T00:35:59.703Z,11.98
2018-10-04T00:41:01.935Z,12.40
2018-10-04T00:46:04.191Z,12.42
2018-10-04T00:51:06.237Z,12.44
2018-10-04T00:56:08.396Z,12.43
2018-10-04T01:01:10.519Z,12.44
2018-10-04T01:06:12.641Z,12.40
2018-10-04T01:11:14.799Z,12.41
2018-10-04T01:16:16.962Z,12.43
2018-10-04T01:21:19.213Z,12.42
2018-10-04T01:26:21.514Z,12.42
2018-10-04T01:31:23.694Z,12.40
2018-10-04T01:36:25.848Z,12.34
2018-10-04T01:41:27.968Z,12.33
2018-10-04T01:46:30.136Z,12.33
2018-10-04T01:51:32.244Z,12.28
2018-10-04T01:56:34.358Z,12.34
2018-10-04T02:01:36.512Z,12.31
2018-10-04T02:06:38.659Z,12.28
2018-10-04T02:11:40.776Z,12.28
2018-10-04T02:16:42.921Z,12.31
2018-10-04T02:21:45.059Z,12.35
2018-10-04T02:26:47.205Z,12.34
2018-10-04T02:31:49.314Z,12.37
2018-10-04T02:36:51.452Z,12.37
2018-10-04T02:41:53.570Z,12.40
2018-10-04T02:46:55.715Z,12.44
2018-10-04T02:51:57.850Z,12.44
2018-10-04T02:57:00.950Z,12.38
2018-10-04T03:02:03.099Z,12.39
2018-10-04T03:07:05.245Z,12.40
2018-10-04T03:12:07.384Z,12.41
2018-10-04T03:17:09.564Z,12.42
2018-10-04T03:22:11.734Z,12.35
2018-10-04T03:27:13.898Z,12.40
2018-10-04T03:32:16.017Z,12.38
2018-10-04T03:37:18.139Z,12.41
2018-10-04T03:42:20.242Z,12.42
2018-10-04T03:47:22.393Z,12.40
2018-10-04T03:52:24.541Z,12.38
2018-10-04T03:57:26.653Z,12.40
2018-10-04T04:02:28.829Z,12.41
2018-10-04T04:07:32.257Z,12.44
2018-10-04T04:12:34.381Z,12.42
2018-10-04T04:17:36.525Z,12.43
2018-10-04T04:22:38.711Z,11.96
2018-10-04T04:27:40.883Z,12.42
2018-10-04T04:32:43.052Z,12.37
2018-10-04T04:37:45.162Z,12.41
2018-10-04T04:42:47.269Z,12.42
2018-10-04T04:47:49.439Z,12.42
2018-10-04T04:52:51.597Z,12.42
2018-10-04T04:57:54.620Z,12.44
2018-10-04T05:02:57.082Z,12.46
2018-10-04T05:08:00.215Z,12.48
2018-10-04T05:13:03.319Z,12.46
2018-10-04T05:18:05.473Z,12.55
2018-10-04T05:23:07.630Z,12.57
2018-10-04T05:28:09.746Z,12.60
2018-10-04T05:33:11.873Z,12.59
2018-10-04T05:38:13.993Z,12.64
2018-10-04T05:43:16.138Z,12.65
2018-10-04T05:48:18.303Z,12.65
2018-10-04T05:53:20.448Z,12.63
2018-10-04T05:58:22.586Z,12.64
2018-10-04T06:03:24.703Z,12.67
2018-10-04T06:08:26.852Z,12.65
2018-10-04T06:13:28.971Z,12.70
2018-10-04T06:18:31.092Z,12.65
2018-10-04T06:23:33.223Z,12.64
2018-10-04T06:28:35.425Z,12.68
2018-10-04T06:33:37.618Z,12.69
2018-10-04T06:38:40.174Z,12.69
2018-10-04T06:43:42.390Z,12.66
2018-10-04T06:48:44.555Z,12.69
2018-10-04T06:53:47.355Z,12.72
2018-10-04T06:58:49.484Z,12.67
2018-10-04T07:03:51.671Z,12.80
2018-10-04T07:08:53.782Z,12.86
2018-10-04T07:13:55.952Z,12.85
2018-10-04T07:18:58.097Z,12.86
2018-10-04T07:24:00.280Z,12.96
2018-10-04T07:29:02.395Z,13.05
2018-10-04T07:34:04.635Z,13.14
2018-10-04T07:39:08.048Z,13.23
2018-10-04T07:44:10.213Z,13.25
2018-10-04T07:49:12.398Z,13.29
2018-10-04T07:54:14.782Z,13.31
2018-10-04T07:59:16.889Z,13.25
2018-10-04T08:04:19.043Z,13.35
2018-10-04T08:09:21.162Z,13.33
2018-10-04T08:14:23.307Z,13.36
2018-10-04T08:19:25.534Z,13.45
2018-10-04T08:24:27.680Z,13.48
2018-10-04T08:29:29.838Z,13.71
2018-10-04T08:34:32.044Z,13.79
2018-10-04T08:39:34.206Z,13.89
2018-10-04T08:44:36.330Z,13.93
2018-10-04T08:49:38.528Z,13.99
2018-10-04T08:54:40.719Z,14.08
2018-10-04T08:59:43.774Z,14.28
2018-10-04T09:04:45.857Z,14.46
2018-10-04T09:09:47.994Z,14.49
2018-10-04T09:14:50.153Z,14.39
2018-10-04T09:19:52.295Z,14.36
2018-10-04T09:24:54.990Z,14.30
2018-10-04T09:30:02.835Z,14.34
2018-10-04T09:35:05.309Z,14.33
2018-10-04T09:40:07.508Z,14.29
2018-10-04T09:45:11.824Z,14.28
2018-10-04T09:50:14.011Z,14.31
2018-10-04T09:55:16.127Z,14.32
2018-10-04T10:00:23.905Z,14.38
2018-10-04T10:05:26.079Z,14.53
2018-10-04T10:10:28.272Z,14.44
2018-10-04T10:15:30.426Z,14.40
2018-10-04T10:20:32.604Z,14.36
2018-10-04T10:25:34.829Z,14.37
2018-10-04T10:30:36.952Z,14.33
2018-10-04T10:35:39.099Z,14.19
2018-10-04T10:40:41.216Z,14.22
2018-10-04T10:45:43.368Z,14.18
2018-10-04T10:50:45.564Z,14.40
2018-10-04T10:55:48.271Z,14.44
2018-10-04T11:00:50.444Z,14.51
2018-10-04T11:05:52.626Z,14.60
2018-10-04T11:10:54.795Z,14.86
2018-10-04T11:15:56.961Z,15.26
2018-10-04T11:20:59.131Z,15.23
2018-10-04T11:26:01.302Z,15.23
2018-10-04T11:31:03.610Z,15.35
2018-10-04T11:36:05.844Z,15.44
2018-10-04T11:41:08.078Z,15.77
2018-10-04T11:46:10.330Z,15.80
2018-10-04T11:51:12.519Z,15.86
2018-10-04T11:56:14.695Z,15.82
2018-10-04T12:01:16.987Z,15.85
2018-10-04T12:06:19.023Z,15.82
2018-10-04T12:11:21.185Z,15.81
2018-10-04T12:16:23.367Z,15.80
2018-10-04T12:21:25.560Z,15.84
2018-10-04T12:26:27.798Z,15.63
2018-10-04T12:31:30.003Z,15.63
2018-10-04T12:36:32.094Z,15.75
2018-10-04T12:41:34.221Z,15.72
2018-10-04T12:46:36.427Z,15.64
2018-10-04T12:51:38.611Z,15.61
2018-10-04T12:56:40.755Z,15.61
2018-10-04T13:01:42.947Z,15.51
2018-10-04T13:06:45.218Z,15.54
2018-10-04T13:11:47.277Z,15.41
2018-10-04T13:16:49.466Z,15.33
2018-10-04T13:21:51.671Z,15.37
2018-10-04T13:26:54.139Z,15.41
2018-10-04T13:31:56.303Z,15.44
2018-10-04T13:36:58.482Z,15.40
2018-10-04T13:42:00.671Z,15.32
2018-10-04T13:47:02.831Z,15.30
2018-10-04T13:52:05.060Z,15.25
2018-10-04T13:57:07.278Z,15.23
2018-10-04T14:02:09.442Z,15.31
2018-10-04T14:07:11.602Z,15.34
2018-10-04T14:12:13.799Z,15.38
2018-10-04T14:17:15.982Z,15.37
2018-10-04T14:22:18.154Z,15.39
2018-10-04T14:27:20.360Z,15.28
2018-10-04T14:32:22.600Z,15.31
2018-10-04T14:37:24.717Z,15.31
2018-10-04T14:42:26.922Z,15.29
2018-10-04T14:47:29.140Z,15.32
2018-10-04T14:52:31.360Z,15.28
2018-10-04T14:57:33.568Z,15.32
2018-10-04T15:02:35.863Z,15.27
2018-10-04T15:07:38.073Z,15.27
2018-10-04T15:12:40.222Z,15.24
2018-10-04T15:17:42.472Z,15.26
2018-10-04T15:22:44.711Z,15.23
2018-10-04T15:27:46.980Z,15.27
2018-10-04T15:32:49.174Z,15.29
2018-10-04T15:37:51.449Z,15.23
2018-10-04T15:42:53.556Z,15.26
2018-10-04T15:47:55.680Z,15.26
2018-10-04T15:52:57.912Z,15.20
2018-10-04T15:58:00.096Z,15.21
2018-10-04T16:03:02.331Z,15.14
2018-10-04T16:08:04.535Z,15.10
2018-10-04T16:13:06.697Z,15.03
2018-10-04T16:18:08.879Z,15.02
2018-10-04T16:23:11.379Z,15.00
2018-10-04T16:28:13.629Z,15.00
2018-10-04T16:33:15.838Z,15.00
2018-10-04T16:38:18.047Z,14.96
2018-10-04T16:43:20.276Z,14.99
2018-10-04T16:48:22.455Z,14.97
2018-10-04T16:53:24.613Z,14.97
2018-10-04T16:58:26.776Z,14.92
2018-10-04T17:03:28.989Z,14.91
2018-10-04T17:08:31.164Z,14.89
2018-10-04T17:13:33.493Z,14.93
2018-10-04T17:18:35.631Z,14.83
2018-10-04T17:23:37.820Z,14.82
2018-10-04T17:28:40.057Z,14.83
2018-10-04T17:33:42.229Z,14.82
2018-10-04T17:38:44.427Z,14.79
2018-10-04T17:43:46.784Z,14.71
2018-10-04T17:48:49.104Z,14.72
2018-10-04T17:53:51.366Z,14.66
2018-10-04T17:58:53.546Z,14.66
2018-10-04T18:03:55.753Z,14.65
2018-10-04T18:08:58.169Z,14.67
2018-10-04T18:14:00.759Z,14.63
2018-10-04T18:19:03.015Z,14.65
2018-10-04T18:24:05.542Z,14.61
2018-10-04T18:29:07.969Z,14.62
2018-10-04T18:34:10.255Z,14.62
2018-10-04T18:39:12.533Z,14.50
2018-10-04T18:44:14.809Z,14.54
2018-10-04T18:49:17.074Z,14.60
2018-10-04T18:54:19.359Z,14.61
2018-10-04T18:59:21.686Z,14.61
2018-10-04T19:04:24.289Z,14.59
2018-10-04T19:09:26.836Z,14.53
2018-10-04T19:14:29.613Z,14.53
2018-10-04T19:19:33.731Z,14.59
2018-10-04T19:24:36.138Z,14.59
2018-10-04T19:29:39.194Z,14.57
2018-10-04T19:34:41.528Z,14.56
2018-10-04T19:39:44.100Z,14.57
2018-10-04T19:44:46.511Z,14.61
2018-10-04T19:49:49.074Z,14.55
2018-10-04T19:54:51.427Z,14.58
2018-10-04T19:59:53.823Z,14.62
2018-10-04T20:04:56.253Z,14.59
2018-10-04T20:09:58.600Z,14.58
2018-10-04T20:15:00.812Z,14.55
2018-10-04T20:20:03.059Z,14.53
2018-10-04T20:25:05.310Z,14.53
2018-10-04T20:30:07.637Z,14.48
2018-10-04T20:35:09.820Z,14.48
2018-10-04T20:40:12.031Z,14.55
2018-10-04T20:45:14.203Z,14.57
2018-10-04T20:50:16.399Z,14.50
2018-10-04T20:55:18.605Z,14.50
2018-10-04T21:00:20.784Z,14.49
2018-10-04T21:05:22.937Z,14.47
2018-10-04T21:10:25.100Z,14.48
2018-10-04T21:15:27.250Z,14.47
2018-10-04T21:20:29.384Z,14.50
2018-10-04T21:25:31.552Z,14.45
2018-10-04T21:30:33.818Z,14.50
2018-10-04T21:35:35.971Z,14.45
2018-10-04T21:40:38.139Z,14.43
2018-10-04T21:45:40.354Z,14.38
2018-10-04T21:50:42.726Z,14.40
2018-10-04T21:55:44.886Z,14.35
2018-10-04T22:00:57.896Z,14.39
2018-10-04T22:06:00.132Z,14.38
2018-10-04T22:11:02.254Z,14.39
2018-10-04T22:16:04.397Z,14.40
2018-10-04T22:21:06.678Z,14.38
2018-10-04T22:26:08.803Z,14.31
2018-10-04T22:31:10.974Z,14.35
2018-10-04T22:36:13.122Z,14.36
2018-10-04T22:41:15.391Z,14.34
2018-10-04T22:46:17.517Z,14.30
2018-10-04T22:51:19.671Z,14.30
2018-10-04T22:56:21.794Z,14.36
2018-10-04T23:01:23.944Z,14.34
2018-10-04T23:06:26.148Z,14.34
2018-10-04T23:11:28.311Z,14.31
2018-10-04T23:16:30.443Z,14.31
2018-10-04T23:21:32.617Z,14.36
2018-10-04T23:26:34.784Z,14.38
2018-10-04T23:31:36.914Z,14.36
2018-10-04T23:36:39.062Z,14.34
2018-10-04T23:41:41.227Z,14.33
2018-10-04T23:46:43.379Z,14.37
2018-10-04T23:51:45.531Z,14.25
2018-10-04T23:56:47.642Z,14.32
